createdAt,value
2019-05-06T00:00:59.296Z,4
2019-05-06T00:02:06.748Z,4
2019-05-06T00:03:14.405Z,4
2019-05-06T00:04:21.621Z,4
2019-05-06T00:05:30.898Z,4.1
2019-05-06T00:06:40.345Z,4.1
2019-05-06T00:07:47.283Z,4.1
2019-05-06T00:08:55.135Z,4.1
2019-05-06T00:10:02.376Z,4.1
2019-05-06T00:11:14.035Z,4.1
2019-05-06T00:12:21.430Z,4.1
2019-05-06T00:13:30.387Z,4.1
2019-05-06T00:14:37.596Z,4.1
2019-05-06T00:15:44.792Z,4.1
2019-05-06T00:16:51.990Z,4.1
2019-05-06T00:18:05.312Z,4
2019-05-06T00:19:14.454Z,4.1
2019-05-06T00:20:21.395Z,4.1
2019-05-06T00:21:31.130Z,4.1
2019-05-06T00:22:38.349Z,4.1
2019-05-06T00:23:45.543Z,4.1
2019-05-06T00:24:55.147Z,4.1
2019-05-06T00:26:04.491Z,4.1
2019-05-06T00:27:11.431Z,4.1
2019-05-06T00:28:20.866Z,4.2
2019-05-06T00:29:28.092Z,4.1
2019-05-06T00:30:35.034Z,4.1
2019-05-06T00:31:44.470Z,4.2
2019-05-06T00:32:53.663Z,4.2
2019-05-06T00:34:01.015Z,4.2
2019-05-06T00:35:10.330Z,4.2
2019-05-06T00:36:17.444Z,4.2
2019-05-06T00:37:24.663Z,4.2
2019-05-06T00:38:33.469Z,4.2
2019-05-06T00:39:41.123Z,4.2
2019-05-06T00:40:50.675Z,4.2
2019-05-06T00:41:57.894Z,4.2
2019-05-06T00:43:05.385Z,4.2
2019-05-06T00:44:14.812Z,4.2
2019-05-06T00:45:21.750Z,4.2
2019-05-06T00:46:30.752Z,4.3
2019-05-06T00:47:37.960Z,4.3
2019-05-06T00:48:45.417Z,4.3
2019-05-06T00:49:55.026Z,4.3
2019-05-06T00:51:04.236Z,4.3
2019-05-06T00:52:13.478Z,4.3
2019-05-06T00:53:20.799Z,4.3
2019-05-06T00:54:27.468Z,4.3
2019-05-06T00:55:34.687Z,4.3
2019-05-06T00:56:41.889Z,4.3
2019-05-06T00:57:51.458Z,4.3
2019-05-06T00:59:00.671Z,4.3
2019-05-06T01:00:09.969Z,4.3
2019-05-06T01:01:29.606Z,4.3
2019-05-06T01:02:36.973Z,4.3
2019-05-06T01:03:44.746Z,4.3
2019-05-06T01:04:53.626Z,4.3
2019-05-06T01:06:03.692Z,4.3
2019-05-06T01:07:11.003Z,4.3
2019-05-06T01:08:20.239Z,4.4
2019-05-06T01:09:27.451Z,4.4
2019-05-06T01:10:35.004Z,4.3
2019-05-06T01:11:42.207Z,4.4
2019-05-06T01:12:51.611Z,4.3
2019-05-06T01:14:01.107Z,4.4
2019-05-06T01:15:10.619Z,4.4
2019-05-06T01:16:17.823Z,4.4
2019-05-06T01:17:25.055Z,4.4
2019-05-06T01:18:33.891Z,4.4
2019-05-06T01:19:41.299Z,4.4
2019-05-06T01:20:48.237Z,4.4
2019-05-06T01:21:55.161Z,4.4
2019-05-06T01:23:04.177Z,4.4
2019-05-06T01:24:11.382Z,4.4
2019-05-06T01:25:18.308Z,4.4
2019-05-06T01:26:25.510Z,4.4
2019-05-06T01:27:33.999Z,4.4
2019-05-06T01:28:41.205Z,4.4
2019-05-06T01:29:50.248Z,4.4
2019-05-06T01:30:57.476Z,4.4
2019-05-06T01:32:04.665Z,4.4
2019-05-06T01:33:11.866Z,4.4
2019-05-06T01:34:21.337Z,4.5
2019-05-06T01:35:28.276Z,4.5
2019-05-06T01:36:35.208Z,4.4
2019-05-06T01:37:44.590Z,4.5
2019-05-06T01:38:53.717Z,4.4
2019-05-06T01:40:00.949Z,4.5
2019-05-06T01:41:10.760Z,4.5
2019-05-06T01:42:20.062Z,4.5
2019-05-06T01:43:27.003Z,4.4
2019-05-06T01:44:34.510Z,4.4
2019-05-06T01:45:41.716Z,4.4
2019-05-06T01:46:50.367Z,4.4
2019-05-06T01:47:57.576Z,4.4
2019-05-06T01:49:04.906Z,4.4
2019-05-06T01:50:13.979Z,4.4
2019-05-06T01:51:21.042Z,4.4
2019-05-06T01:52:30.794Z,4.4
2019-05-06T01:53:38.021Z,4.4
2019-05-06T01:54:45.219Z,4.4
2019-05-06T01:55:52.148Z,4.4
2019-05-06T01:57:01.039Z,4.5
2019-05-06T01:58:07.697Z,4.5
2019-05-06T01:59:14.900Z,4.5
2019-05-06T02:00:24.175Z,4.5
2019-05-06T02:01:31.407Z,4.4
2019-05-06T02:02:40.533Z,4.5
2019-05-06T02:03:50.159Z,4.5
2019-05-06T02:04:57.374Z,4.5
2019-05-06T02:06:05.380Z,4.5
2019-05-06T02:07:14.887Z,4.5
2019-05-06T02:08:24.236Z,4.5
2019-05-06T02:09:31.364Z,4.5
2019-05-06T02:10:40.457Z,4.4
2019-05-06T02:11:48.663Z,4.4
2019-05-06T02:12:55.860Z,4.4
2019-05-06T02:14:05.206Z,4.4
2019-05-06T02:15:12.149Z,4.4
2019-05-06T02:16:21.066Z,4.4
2019-05-06T02:17:30.804Z,4.4
2019-05-06T02:18:38.018Z,4.4
2019-05-06T02:19:44.969Z,4.4
2019-05-06T02:20:54.280Z,4.4
2019-05-06T02:22:01.492Z,4.4
2019-05-06T02:23:10.943Z,4.4
2019-05-06T02:24:18.149Z,4.4
2019-05-06T02:25:25.099Z,4.4
2019-05-06T02:26:34.253Z,4.4
2019-05-06T02:27:55.946Z,4.4
2019-05-06T02:29:04.814Z,4.4
2019-05-06T02:30:15.079Z,4.4
2019-05-06T02:31:25.490Z,4.4
2019-05-06T02:32:36.224Z,4.4
2019-05-06T02:33:45.332Z,4.4
2019-05-06T02:34:55.253Z,4.4
2019-05-06T02:36:02.466Z,4.4
2019-05-06T02:37:15.290Z,4.4
2019-05-06T02:38:34.017Z,4.4
2019-05-06T02:40:04.583Z,4.4
2019-05-06T02:41:13.994Z,4.4
2019-05-06T02:42:23.651Z,4.4
2019-05-06T02:43:34.910Z,4.4
2019-05-06T02:44:44.768Z,4.4
2019-05-06T02:45:53.643Z,4.4
2019-05-06T02:47:03.378Z,4.5
2019-05-06T02:48:13.424Z,4.4
2019-05-06T02:49:24.206Z,4.4
2019-05-06T02:50:34.362Z,4.4
2019-05-06T02:51:44.686Z,4.4
2019-05-06T02:52:54.316Z,4.4
2019-05-06T02:54:03.865Z,4.4
2019-05-06T02:55:13.529Z,4.4
2019-05-06T02:56:20.527Z,4.4
2019-05-06T02:57:33.929Z,4.4
2019-05-06T02:58:44.105Z,4.4
2019-05-06T02:59:54.816Z,4.4
2019-05-06T03:01:04.288Z,4.4
2019-05-06T03:02:14.603Z,4.4
2019-05-06T03:03:44.207Z,4.4
2019-05-06T03:04:53.427Z,4.4
2019-05-06T03:06:03.515Z,4.4
2019-05-06T03:07:14.900Z,4.4
2019-05-06T03:08:24.314Z,4.4
2019-05-06T03:09:34.379Z,4.4
2019-05-06T03:10:44.673Z,4.4
2019-05-06T03:11:54.625Z,4.4
2019-05-06T03:13:03.619Z,4.4
2019-05-06T03:14:13.784Z,4.4
2019-05-06T03:15:24.348Z,4.4
2019-05-06T03:16:33.894Z,4.4
2019-05-06T03:17:43.975Z,4.4
2019-05-06T03:18:53.870Z,4.4
2019-05-06T03:20:04.590Z,4.4
2019-05-06T03:21:14.506Z,4.4
2019-05-06T03:22:28.030Z,4.4
2019-05-06T03:23:35.845Z,4.4
2019-05-06T03:24:44.207Z,4.4
2019-05-06T03:25:53.885Z,4.4
2019-05-06T03:27:05.136Z,4.4
2019-05-06T03:28:13.797Z,4.4
2019-05-06T03:29:21.003Z,4.5
2019-05-06T03:30:36.710Z,4.5
2019-05-06T03:31:47.010Z,4.4
2019-05-06T03:33:49.495Z,4.4
2019-05-06T03:36:24.890Z,4.4
2019-05-06T03:37:53.950Z,4.4
2019-05-06T03:39:03.628Z,4.4
2019-05-06T03:40:13.555Z,4.4
2019-05-06T03:41:26.934Z,4.4
2019-05-06T03:42:34.190Z,4.4
2019-05-06T03:43:44.117Z,4.3
2019-05-06T03:44:53.962Z,4.4
2019-05-06T03:46:03.536Z,4.4
2019-05-06T03:47:14.322Z,4.3
2019-05-06T03:48:24.428Z,4.4
2019-05-06T03:49:34.481Z,4.4
2019-05-06T03:50:44.500Z,4.3
2019-05-06T03:51:56.744Z,4.4
2019-05-06T03:53:03.965Z,4.3
2019-05-06T03:54:13.379Z,4.3
2019-05-06T03:55:23.282Z,4.3
2019-05-06T03:56:33.696Z,4.4
2019-05-06T03:57:43.432Z,4.3
2019-05-06T03:58:53.235Z,4.3
2019-05-06T04:00:04.083Z,4.3
2019-05-06T04:01:13.720Z,4.4
2019-05-06T04:02:23.661Z,4.3
2019-05-06T04:03:52.440Z,4.4
2019-05-06T04:05:04.835Z,4.3
2019-05-06T04:06:14.450Z,4.3
2019-05-06T04:07:24.072Z,4.3
2019-05-06T04:08:34.609Z,4.3
2019-05-06T04:09:44.397Z,4.3
2019-05-06T04:10:54.446Z,4.3
2019-05-06T04:12:04.178Z,4.3
2019-05-06T04:13:14.033Z,4.3
2019-05-06T04:14:24.244Z,4.3
2019-05-06T04:15:34.651Z,4.3
2019-05-06T04:16:44.663Z,4.3
2019-05-06T04:17:54.570Z,4.3
2019-05-06T04:19:04.559Z,4.3
2019-05-06T04:20:13.054Z,4.3
2019-05-06T04:21:23.680Z,4.3
2019-05-06T04:22:33.721Z,4.3
2019-05-06T04:23:44.071Z,4.3
2019-05-06T04:24:54.324Z,4.3
2019-05-06T04:26:03.797Z,4.3
2019-05-06T04:27:14.042Z,4.3
2019-05-06T04:28:24.257Z,4.3
2019-05-06T04:29:35.801Z,4.4
2019-05-06T04:30:43.517Z,4.4
2019-05-06T04:31:53.601Z,4.4
2019-05-06T04:33:03.919Z,4.4
2019-05-06T04:34:19.537Z,4.4
2019-05-06T04:35:30.118Z,4.4
2019-05-06T04:36:43.777Z,4.4
2019-05-06T04:37:54.291Z,4.4
2019-05-06T04:39:04.599Z,4.4
2019-05-06T04:40:13.565Z,4.4
2019-05-06T04:41:27.019Z,4.4
2019-05-06T04:42:35.087Z,4.4
2019-05-06T04:43:44.480Z,4.4
2019-05-06T04:44:53.765Z,4.4
2019-05-06T04:46:03.563Z,4.4
2019-05-06T04:47:10.865Z,4.5
2019-05-06T04:48:24.259Z,4.5
2019-05-06T04:49:33.687Z,4.5
2019-05-06T04:50:43.984Z,4.5
2019-05-06T04:51:54.437Z,4.5
2019-05-06T04:53:05.758Z,4.5
2019-05-06T04:54:14.115Z,4.6
2019-05-06T04:55:22.877Z,4.6
2019-05-06T04:56:33.026Z,4.6
2019-05-06T04:57:40.471Z,4.6
2019-05-06T04:58:53.548Z,4.6
2019-05-06T05:00:04.624Z,4.7
2019-05-06T05:01:15.786Z,4.7
2019-05-06T05:02:23.662Z,4.7
2019-05-06T05:03:33.341Z,4.7
2019-05-06T05:04:43.677Z,4.7
2019-05-06T05:05:53.620Z,4.7
2019-05-06T05:07:03.116Z,4.8
2019-05-06T05:08:13.127Z,4.8
2019-05-06T05:09:22.826Z,4.8
2019-05-06T05:10:32.191Z,4.8
2019-05-06T05:11:39.505Z,4.8
2019-05-06T05:12:49.085Z,4.9
2019-05-06T05:13:59.136Z,4.9
2019-05-06T05:15:09.587Z,4.9
2019-05-06T05:16:18.594Z,4.9
2019-05-06T05:17:25.798Z,5
2019-05-06T05:18:33.004Z,5
2019-05-06T05:19:40.223Z,5.1
2019-05-06T05:20:49.585Z,5.1
2019-05-06T05:21:59.084Z,5.1
2019-05-06T05:23:06.292Z,5.2
2019-05-06T05:24:13.506Z,5.2
2019-05-06T05:25:22.639Z,5.2
2019-05-06T05:26:31.712Z,5.3
2019-05-06T05:27:39.402Z,5.3
2019-05-06T05:28:48.869Z,5.4
2019-05-06T05:29:55.850Z,5.4
2019-05-06T05:31:03.658Z,5.5
2019-05-06T05:32:12.533Z,5.5
2019-05-06T05:33:22.333Z,5.6
2019-05-06T05:34:40.880Z,5.6
2019-05-06T05:35:50.029Z,5.6
2019-05-06T05:36:59.445Z,5.6
2019-05-06T05:38:06.656Z,5.7
2019-05-06T05:39:13.871Z,5.8
2019-05-06T05:40:22.996Z,5.9
2019-05-06T05:41:30.206Z,6
2019-05-06T05:42:39.377Z,6.1
2019-05-06T05:43:48.626Z,6.1
2019-05-06T05:44:55.835Z,6.1
2019-05-06T05:46:03.526Z,6.1
2019-05-06T05:47:12.832Z,6.2
2019-05-06T05:48:19.767Z,6.3
2019-05-06T05:49:29.615Z,6.3
2019-05-06T05:50:38.669Z,6.3
2019-05-06T05:51:48.244Z,6.4
2019-05-06T05:52:55.176Z,6.5
2019-05-06T05:54:02.823Z,6.6
2019-05-06T05:55:12.054Z,6.7
2019-05-06T05:56:19.345Z,6.9
2019-05-06T05:57:26.558Z,7
2019-05-06T05:58:33.769Z,7.1
2019-05-06T05:59:42.745Z,7.2
2019-05-06T06:00:51.983Z,7.2
2019-05-06T06:01:59.285Z,7.2
2019-05-06T06:03:07.792Z,7.2
2019-05-06T06:04:15.003Z,7.2
2019-05-06T06:05:22.408Z,7.2
2019-05-06T06:06:29.619Z,7.4
2019-05-06T06:07:36.563Z,7.5
2019-05-06T06:08:43.812Z,7.5
2019-05-06T06:09:53.000Z,7.6
2019-05-06T06:11:00.205Z,7.8
2019-05-06T06:12:07.410Z,8
2019-05-06T06:13:14.350Z,8.1
2019-05-06T06:14:22.382Z,8.1
2019-05-06T06:15:29.622Z,8.2
2019-05-06T06:16:36.530Z,8.3
2019-05-06T06:17:43.743Z,8.5
2019-05-06T06:18:52.911Z,8.5
2019-05-06T06:20:00.117Z,8.4
2019-05-06T06:21:27.763Z,8.4
2019-05-06T06:22:35.254Z,8.4
2019-05-06T06:23:42.503Z,8.6
2019-05-06T06:24:49.445Z,8.5
2019-05-06T06:25:58.788Z,8.4
2019-05-06T06:27:06.023Z,8.4
2019-05-06T06:28:12.954Z,8.4
2019-05-06T06:29:20.159Z,8.4
2019-05-06T06:30:29.514Z,8.5
2019-05-06T06:31:36.726Z,8.5
2019-05-06T06:32:43.936Z,8.4
2019-05-06T06:33:53.434Z,8.5
2019-05-06T06:35:14.364Z,8.6
2019-05-06T06:36:23.655Z,8.5
2019-05-06T06:37:33.030Z,8.6
2019-05-06T06:38:40.438Z,8.6
2019-05-06T06:39:49.366Z,8.7
2019-05-06T06:40:56.581Z,8.6
2019-05-06T06:42:03.789Z,8.6
2019-05-06T06:43:12.917Z,8.6
2019-05-06T06:44:22.015Z,8.7
2019-05-06T06:45:29.341Z,8.9
2019-05-06T06:46:38.874Z,8.9
2019-05-06T06:47:46.103Z,8.8
2019-05-06T06:48:53.046Z,8.7
2019-05-06T06:50:02.605Z,8.6
2019-05-06T06:51:12.249Z,8.7
2019-05-06T06:52:19.269Z,8.7
2019-05-06T06:53:29.018Z,8.9
2019-05-06T06:54:35.956Z,8.9
2019-05-06T06:55:43.317Z,8.9
2019-05-06T06:57:09.106Z,9.1
2019-05-06T06:58:18.912Z,9.2
2019-05-06T06:59:26.146Z,9.6
2019-05-06T07:00:34.164Z,9.7
2019-05-06T07:01:42.824Z,9.8
2019-05-06T07:02:50.035Z,9.9
2019-05-06T07:03:58.931Z,10.1
2019-05-06T07:05:28.272Z,10.5
2019-05-06T07:06:35.674Z,10.8
2019-05-06T07:07:48.077Z,11.2
2019-05-06T07:08:55.321Z,11.2
2019-05-06T07:10:03.222Z,11
2019-05-06T07:11:10.432Z,11
2019-05-06T07:12:19.888Z,11.2
2019-05-06T07:13:29.645Z,11.2
2019-05-06T07:14:39.473Z,11.2
2019-05-06T07:15:49.012Z,11.2
2019-05-06T07:16:58.407Z,11.1
2019-05-06T07:18:05.630Z,10.7
2019-05-06T07:19:13.295Z,10.8
2019-05-06T07:20:22.836Z,10.9
2019-05-06T07:21:31.581Z,10.9
2019-05-06T07:22:42.965Z,11.3
2019-05-06T07:23:49.922Z,11.3
2019-05-06T07:24:59.203Z,11.4
2019-05-06T07:26:12.612Z,11.3
2019-05-06T07:27:19.822Z,11.1
2019-05-06T07:28:29.033Z,10.9
2019-05-06T07:29:38.840Z,10.8
2019-05-06T07:30:53.616Z,10.9
2019-05-06T07:32:03.158Z,10.9
2019-05-06T07:33:10.107Z,10.9
2019-05-06T07:34:19.889Z,10.8
2019-05-06T07:35:43.359Z,10.8
2019-05-06T07:36:53.106Z,10.7
2019-05-06T07:38:02.312Z,10.6
2019-05-06T07:39:09.629Z,10.4
2019-05-06T07:40:22.558Z,10.6
2019-05-06T07:41:29.774Z,10.6
2019-05-06T07:42:43.630Z,10.8
2019-05-06T07:43:52.989Z,10.9
2019-05-06T07:45:00.189Z,10.8
2019-05-06T07:46:13.102Z,10.8
2019-05-06T07:47:20.035Z,10.9
2019-05-06T07:48:27.237Z,11
2019-05-06T07:49:34.451Z,11.2
2019-05-06T07:50:43.015Z,11.1
2019-05-06T07:51:49.968Z,11.1
2019-05-06T07:52:59.287Z,11.3
2019-05-06T07:54:08.344Z,11.5
2019-05-06T07:55:15.559Z,11.9
2019-05-06T07:56:23.114Z,12.1
2019-05-06T07:57:30.053Z,12.3
2019-05-06T07:58:39.191Z,12.3
2019-05-06T07:59:46.413Z,12.6
2019-05-06T08:00:53.629Z,12.8
2019-05-06T08:02:02.821Z,12.8
2019-05-06T08:03:09.773Z,12.5
2019-05-06T08:04:20.170Z,12.4
2019-05-06T08:05:32.091Z,12.1
2019-05-06T08:06:39.540Z,12.1
2019-05-06T08:07:48.868Z,12.4
2019-05-06T08:08:56.074Z,12.6
2019-05-06T08:10:03.286Z,12.6
2019-05-06T08:11:12.705Z,12.6
2019-05-06T08:12:22.053Z,12.6
2019-05-06T08:13:29.516Z,12.5
2019-05-06T08:14:39.047Z,12.4
2019-05-06T08:15:46.267Z,12.3
2019-05-06T08:16:53.744Z,12.3
2019-05-06T08:18:03.791Z,12.5
2019-05-06T08:19:12.509Z,12.9
2019-05-06T08:20:19.448Z,13.3
2019-05-06T08:21:28.915Z,13.5
2019-05-06T08:22:36.129Z,13.5
2019-05-06T08:23:43.415Z,13.3
2019-05-06T08:24:52.699Z,12.9
2019-05-06T08:26:15.691Z,12.9
2019-05-06T08:27:24.844Z,12.7
2019-05-06T08:28:44.425Z,12.5
2019-05-06T08:29:53.195Z,12.1
2019-05-06T08:31:02.224Z,11.8
2019-05-06T08:32:09.619Z,11.6
2019-05-06T08:33:18.984Z,11.4
2019-05-06T08:34:28.217Z,11.4
2019-05-06T08:35:35.436Z,11.5
2019-05-06T08:36:43.304Z,11.6
2019-05-06T08:37:50.262Z,11.7
2019-05-06T08:38:59.875Z,11.6
2019-05-06T08:40:09.452Z,11.5
2019-05-06T08:41:18.706Z,11.2
2019-05-06T08:42:25.914Z,11.2
2019-05-06T08:43:33.207Z,11.3
2019-05-06T08:44:42.467Z,11.3
2019-05-06T08:45:49.839Z,11.4
2019-05-06T08:46:59.249Z,11.4
2019-05-06T08:48:08.670Z,11.5
2019-05-06T08:49:15.883Z,11.5
2019-05-06T08:50:22.278Z,11.6
2019-05-06T08:51:29.501Z,11.9
2019-05-06T08:52:39.446Z,12.5
2019-05-06T08:53:48.725Z,12.9
2019-05-06T08:54:55.950Z,13.4
2019-05-06T08:56:03.163Z,13.8
2019-05-06T08:57:11.786Z,14.1
2019-05-06T08:58:19.097Z,14.1
2019-05-06T08:59:28.863Z,13.8
2019-05-06T09:00:38.346Z,13.4
2019-05-06T09:01:45.283Z,12.9
2019-05-06T09:02:53.570Z,12.7
2019-05-06T09:04:16.093Z,12.3
2019-05-06T09:05:23.218Z,11.9
2019-05-06T09:06:34.559Z,11.6
2019-05-06T09:07:43.484Z,11.1
2019-05-06T09:08:52.701Z,11.1
2019-05-06T09:10:03.557Z,11
2019-05-06T09:11:12.730Z,11
2019-05-06T09:12:19.670Z,11
2019-05-06T09:13:29.079Z,11.1
2019-05-06T09:14:38.913Z,11.1
2019-05-06T09:15:46.134Z,11.1
2019-05-06T09:16:54.578Z,11
2019-05-06T09:18:03.528Z,11.1
2019-05-06T09:19:13.299Z,11.1
2019-05-06T09:20:20.238Z,11.1
2019-05-06T09:21:29.650Z,11.1
2019-05-06T09:22:39.710Z,11.2
2019-05-06T09:23:49.149Z,11.2
2019-05-06T09:24:56.078Z,11.3
2019-05-06T09:26:03.292Z,11.5
2019-05-06T09:27:12.782Z,11.9
2019-05-06T09:28:20.005Z,12.5
2019-05-06T09:29:32.345Z,13
2019-05-06T09:30:39.476Z,13.5
2019-05-06T09:31:46.689Z,13.9
2019-05-06T09:32:53.928Z,14.5
2019-05-06T09:34:03.393Z,14.7
2019-05-06T09:35:12.929Z,14
2019-05-06T09:36:22.727Z,13.7
2019-05-06T09:37:46.130Z,13.4
2019-05-06T09:38:53.579Z,12.9
2019-05-06T09:40:03.221Z,12.7
2019-05-06T09:41:12.857Z,12.4
2019-05-06T09:42:20.067Z,12.3
2019-05-06T09:43:29.716Z,12
2019-05-06T09:44:39.495Z,12
2019-05-06T09:45:49.410Z,12.1
2019-05-06T09:46:56.355Z,12.2
2019-05-06T09:48:04.711Z,12.5
2019-05-06T09:49:13.309Z,12.7
2019-05-06T09:50:20.264Z,12.9
2019-05-06T09:51:32.346Z,13.2
2019-05-06T09:52:39.680Z,13.4
2019-05-06T09:54:04.282Z,13
2019-05-06T09:55:13.406Z,13
2019-05-06T09:56:22.884Z,12.8
2019-05-06T09:57:29.871Z,12.6
2019-05-06T09:58:39.461Z,12.6
2019-05-06T09:59:49.571Z,12.7
2019-05-06T10:00:58.918Z,12.6
2019-05-06T10:02:08.858Z,12.5
2019-05-06T10:03:18.657Z,12.4
2019-05-06T10:04:25.875Z,12.3
2019-05-06T10:05:32.829Z,12.4
2019-05-06T10:06:54.953Z,12.4
2019-05-06T10:08:08.866Z,12.4
2019-05-06T10:09:18.760Z,11.9
2019-05-06T10:10:25.970Z,11.8
2019-05-06T10:11:33.150Z,11.8
2019-05-06T10:12:42.498Z,12
2019-05-06T10:13:49.716Z,11.6
2019-05-06T10:14:59.167Z,11.1
2019-05-06T10:16:09.628Z,11.2
2019-05-06T10:17:16.556Z,11.2
2019-05-06T10:18:23.760Z,11.2
2019-05-06T10:19:32.651Z,11.5
2019-05-06T10:20:42.260Z,11.7
2019-05-06T10:21:49.720Z,11.8
2019-05-06T10:22:59.251Z,11.8
2019-05-06T10:24:06.462Z,11.9
2019-05-06T10:25:13.689Z,12
2019-05-06T10:26:23.313Z,11.8
2019-05-06T10:27:30.684Z,11.8
2019-05-06T10:28:37.648Z,11.9
2019-05-06T10:29:44.871Z,12.1
2019-05-06T10:30:51.808Z,12.3
2019-05-06T10:31:59.025Z,12.3
2019-05-06T10:33:06.246Z,12.4
2019-05-06T10:34:14.681Z,12.5
2019-05-06T10:35:27.799Z,12.5
2019-05-06T10:36:39.103Z,12.5
2019-05-06T10:37:46.317Z,12
2019-05-06T10:38:53.539Z,11.9
2019-05-06T10:40:03.572Z,11.7
2019-05-06T10:41:10.519Z,11.5
2019-05-06T10:42:19.828Z,11.5
2019-05-06T10:43:28.987Z,11.5
2019-05-06T10:44:35.928Z,11.4
2019-05-06T10:45:43.217Z,11.5
2019-05-06T10:46:53.083Z,11.7
2019-05-06T10:48:02.799Z,11.8
2019-05-06T10:49:10.015Z,11.9
2019-05-06T10:50:19.911Z,11.8
2019-05-06T10:51:29.189Z,11.7
2019-05-06T10:52:39.114Z,11.6
2019-05-06T10:53:46.331Z,11.4
2019-05-06T10:54:53.544Z,11.4
2019-05-06T10:56:02.589Z,11.5
2019-05-06T10:57:09.824Z,11.3
2019-05-06T10:58:19.270Z,11.2
2019-05-06T10:59:29.256Z,11.3
2019-05-06T11:00:38.841Z,11.5
2019-05-06T11:01:46.052Z,11.8
2019-05-06T11:02:53.266Z,12
2019-05-06T11:04:00.195Z,11.6
2019-05-06T11:05:09.574Z,11.5
2019-05-06T11:06:16.511Z,11.4
2019-05-06T11:07:35.175Z,11.7
2019-05-06T11:08:42.703Z,11.9
2019-05-06T11:09:49.922Z,12.3
2019-05-06T11:11:24.776Z,12.6
2019-05-06T11:12:45.210Z,12.4
2019-05-06T11:13:52.796Z,12.2
2019-05-06T11:15:00.021Z,11.9
2019-05-06T11:16:10.160Z,11.8
2019-05-06T11:17:23.906Z,12.1
2019-05-06T11:18:33.968Z,12.4
2019-05-06T11:19:43.249Z,12.6
2019-05-06T11:20:56.531Z,12.7
2019-05-06T11:22:04.281Z,12.9
2019-05-06T11:23:11.263Z,13.1
2019-05-06T11:24:23.536Z,13.1
2019-05-06T11:25:32.875Z,13.3
2019-05-06T11:26:40.086Z,13.2
2019-05-06T11:27:52.444Z,13.3
2019-05-06T11:28:59.913Z,13
2019-05-06T11:30:13.304Z,12.8
2019-05-06T11:31:22.789Z,13
2019-05-06T11:32:30.103Z,13.1
2019-05-06T11:33:42.313Z,12.7
2019-05-06T11:34:49.611Z,12.7
2019-05-06T11:35:59.356Z,12.5
2019-05-06T11:37:06.584Z,12.5
2019-05-06T11:38:13.550Z,12.7
2019-05-06T11:39:23.690Z,12.9
2019-05-06T11:40:33.402Z,13.2
2019-05-06T11:42:14.802Z,13.4
2019-05-06T11:43:43.380Z,13.8
2019-05-06T11:44:52.759Z,13.9
2019-05-06T11:46:00.274Z,14
2019-05-06T11:47:07.497Z,14.5
2019-05-06T11:48:15.187Z,14.9
2019-05-06T11:49:23.835Z,13.9
2019-05-06T11:50:33.278Z,13.5
2019-05-06T11:51:43.270Z,13
2019-05-06T11:52:56.149Z,13
2019-05-06T11:54:17.360Z,13.3
2019-05-06T11:55:39.020Z,14
2019-05-06T11:56:56.252Z,14.8
2019-05-06T11:58:05.507Z,15.1
2019-05-06T11:59:13.482Z,14.9
2019-05-06T12:00:23.708Z,14.1
2019-05-06T12:01:33.227Z,14.1
2019-05-06T12:02:48.253Z,14
2019-05-06T12:03:55.906Z,14.2
2019-05-06T12:05:03.127Z,14.4
2019-05-06T12:06:12.800Z,14.8
2019-05-06T12:07:20.179Z,14.7
2019-05-06T12:08:33.113Z,14.3
2019-05-06T12:09:40.328Z,14.1
2019-05-06T12:10:47.275Z,13.5
2019-05-06T12:11:54.213Z,13.4
2019-05-06T12:13:03.389Z,12.9
2019-05-06T12:14:12.934Z,12.8
2019-05-06T12:15:20.131Z,12.8
2019-05-06T12:16:29.701Z,12.7
2019-05-06T12:17:39.301Z,12.7
2019-05-06T12:18:48.855Z,12.7
2019-05-06T12:19:56.079Z,12.7
2019-05-06T12:21:13.235Z,12.7
2019-05-06T12:22:26.203Z,12.4
2019-05-06T12:23:36.013Z,12.2
2019-05-06T12:24:43.701Z,12.4
2019-05-06T12:25:52.767Z,12.4
2019-05-06T12:27:00.139Z,12.4
2019-05-06T12:28:12.242Z,12.6
2019-05-06T12:29:19.297Z,12.7
2019-05-06T12:30:26.512Z,12.5
2019-05-06T12:31:33.738Z,12.1
2019-05-06T12:32:43.144Z,11.9
2019-05-06T12:33:50.233Z,11.9
2019-05-06T12:35:00.014Z,12
2019-05-06T12:36:09.572Z,12.1
2019-05-06T12:37:19.524Z,12.1
2019-05-06T12:38:31.257Z,11.9
2019-05-06T12:39:38.526Z,12
2019-05-06T12:40:45.464Z,11.9
2019-05-06T12:41:54.043Z,11.7
2019-05-06T12:43:04.561Z,12
2019-05-06T12:44:13.652Z,12.1
2019-05-06T12:45:23.019Z,12.2
2019-05-06T12:46:30.321Z,12.4
2019-05-06T12:47:39.686Z,12.3
2019-05-06T12:48:49.372Z,11.9
2019-05-06T12:49:58.873Z,11.6
2019-05-06T12:51:05.808Z,11.7
2019-05-06T12:52:13.028Z,11.9
2019-05-06T12:53:20.243Z,11.9
2019-05-06T12:54:29.849Z,11.7
2019-05-06T12:55:39.742Z,11.7
2019-05-06T12:56:49.286Z,11.7
2019-05-06T12:57:58.539Z,11.6
2019-05-06T12:59:05.486Z,11.7
2019-05-06T13:00:13.620Z,11.7
2019-05-06T13:01:20.838Z,11.8
2019-05-06T13:02:28.099Z,12.1
2019-05-06T13:03:35.589Z,12.1
2019-05-06T13:04:59.605Z,12.1
2019-05-06T13:06:13.470Z,12
2019-05-06T13:07:20.422Z,12.2
2019-05-06T13:08:53.752Z,12.4
2019-05-06T13:10:13.592Z,12.5
2019-05-06T13:11:20.808Z,12.7
2019-05-06T13:12:28.027Z,12.7
2019-05-06T13:13:35.241Z,12.9
2019-05-06T13:14:43.636Z,12.9
2019-05-06T13:15:53.379Z,13.1
2019-05-06T13:17:02.393Z,12.8
2019-05-06T13:18:09.759Z,12.5
2019-05-06T13:19:17.067Z,12.7
2019-05-06T13:20:24.293Z,12.7
2019-05-06T13:21:33.325Z,13
2019-05-06T13:22:40.531Z,13.2
2019-05-06T13:23:47.756Z,13.4
2019-05-06T13:24:54.702Z,13.7
2019-05-06T13:26:02.633Z,13.9
2019-05-06T13:27:12.381Z,13.8
2019-05-06T13:28:22.219Z,13.6
2019-05-06T13:29:32.970Z,13.4
2019-05-06T13:30:43.922Z,13.3
2019-05-06T13:31:53.450Z,13.1
2019-05-06T13:33:03.819Z,13.1
2019-05-06T13:34:11.890Z,13.3
2019-05-06T13:35:19.412Z,13.3
2019-05-06T13:36:29.303Z,13.2
2019-05-06T13:37:39.556Z,13.2
2019-05-06T13:38:49.042Z,13.2
2019-05-06T13:40:07.522Z,13.2
2019-05-06T13:41:14.855Z,13.4
2019-05-06T13:42:23.263Z,13.5
2019-05-06T13:43:33.275Z,13.8
2019-05-06T13:44:39.944Z,13.8
2019-05-06T13:45:49.250Z,13.7
2019-05-06T13:46:59.212Z,13.9
2019-05-06T13:48:09.204Z,14.2
2019-05-06T13:49:16.423Z,14.1
2019-05-06T13:50:23.629Z,13.9
2019-05-06T13:51:32.891Z,13.8
2019-05-06T13:52:42.390Z,13.6
2019-05-06T13:53:49.449Z,13.6
2019-05-06T13:54:59.122Z,13.6
2019-05-06T13:56:09.232Z,13.3
2019-05-06T13:57:18.335Z,12.9
2019-05-06T13:58:25.271Z,12.7
2019-05-06T13:59:37.061Z,12.4
2019-05-06T14:00:44.358Z,12.4
2019-05-06T14:01:53.264Z,12.2
2019-05-06T14:03:02.547Z,12.3
2019-05-06T14:04:09.765Z,12.3
2019-05-06T14:05:19.155Z,12.5
2019-05-06T14:06:26.378Z,12.3
2019-05-06T14:07:35.183Z,12.3
2019-05-06T14:08:42.845Z,11.9
2019-05-06T14:09:49.789Z,11.9
2019-05-06T14:11:02.761Z,12
2019-05-06T14:12:09.879Z,12
2019-05-06T14:13:17.092Z,12.1
2019-05-06T14:14:24.301Z,12
2019-05-06T14:15:33.093Z,12
2019-05-06T14:16:42.300Z,12
2019-05-06T14:17:49.407Z,12.1
2019-05-06T14:18:56.615Z,12
2019-05-06T14:20:03.825Z,12
2019-05-06T14:21:13.013Z,12.2
2019-05-06T14:22:20.218Z,12.3
2019-05-06T14:23:29.989Z,12.5
2019-05-06T14:24:39.461Z,12.6
2019-05-06T14:25:46.677Z,12.7
2019-05-06T14:26:59.210Z,12.9
2019-05-06T14:28:08.774Z,12.8
2019-05-06T14:29:15.994Z,13
2019-05-06T14:30:23.364Z,13
2019-05-06T14:31:33.177Z,12.9
2019-05-06T14:32:40.399Z,12.6
2019-05-06T14:33:52.021Z,12.6
2019-05-06T14:34:59.408Z,12.6
2019-05-06T14:36:06.650Z,12.8
2019-05-06T14:37:13.861Z,13
2019-05-06T14:38:24.988Z,12.8
2019-05-06T14:39:55.024Z,12.7
2019-05-06T14:41:08.810Z,12.7
2019-05-06T14:42:16.034Z,12.7
2019-05-06T14:43:23.402Z,12.6
2019-05-06T14:44:33.111Z,12.8
2019-05-06T14:45:42.759Z,12.7
2019-05-06T14:46:49.994Z,13
2019-05-06T14:47:57.197Z,13.2
2019-05-06T14:49:04.883Z,13.4
2019-05-06T14:50:15.020Z,13.5
2019-05-06T14:51:22.832Z,13.6
2019-05-06T14:52:30.042Z,13.6
2019-05-06T14:53:40.121Z,13.8
2019-05-06T14:54:50.304Z,13.7
2019-05-06T14:56:02.283Z,13.5
2019-05-06T14:57:11.917Z,13.3
2019-05-06T14:58:19.403Z,13.2
2019-05-06T14:59:29.063Z,13.1
2019-05-06T15:00:36.293Z,12.9
2019-05-06T15:01:46.164Z,12.8
2019-05-06T15:02:53.895Z,12.8
2019-05-06T15:04:01.113Z,12.7
2019-05-06T15:05:08.331Z,12.8
2019-05-06T15:06:15.543Z,12.8
2019-05-06T15:07:22.755Z,12.9
2019-05-06T15:08:31.958Z,12.9
2019-05-06T15:10:16.230Z,12.9
2019-05-06T15:11:33.031Z,12.8
2019-05-06T15:12:42.376Z,12.9
2019-05-06T15:13:49.845Z,12.8
2019-05-06T15:14:59.383Z,12.6
2019-05-06T15:16:06.595Z,12.5
2019-05-06T15:17:14.983Z,12.3
2019-05-06T15:18:22.992Z,12.3
2019-05-06T15:19:30.612Z,12.2
2019-05-06T15:20:37.565Z,12.2
2019-05-06T15:21:44.788Z,12.1
2019-05-06T15:22:53.484Z,12.1
2019-05-06T15:24:03.147Z,12
2019-05-06T15:25:12.701Z,11.7
2019-05-06T15:26:19.839Z,11.5
2019-05-06T15:27:29.207Z,11.4
2019-05-06T15:28:36.415Z,11.3
2019-05-06T15:29:43.360Z,11.4
2019-05-06T15:30:53.123Z,11.3
2019-05-06T15:32:03.006Z,11.3
2019-05-06T15:33:10.216Z,11.3
2019-05-06T22:00:06.692Z,2.7
2019-05-06T22:01:13.894Z,2.7
2019-05-06T22:02:23.492Z,2.7
2019-05-06T22:03:33.123Z,2.7
2019-05-06T22:04:40.330Z,2.7
2019-05-06T22:05:50.032Z,2.7
2019-05-06T22:07:03.440Z,2.7
2019-05-06T22:08:12.571Z,2.8
2019-05-06T22:09:19.998Z,2.8
2019-05-06T22:10:29.240Z,2.8
2019-05-06T22:11:38.739Z,2.8